Time;durP1;ratioP1;P1;durP2;ratioP2;P2;SDS_P1;SDS_P2;PMS_P1;PMS_P2;Temp;Humidity;BMP_temperature;BMP_pressure;BME280_temperature;BME280_humidity;BME280_pressure;Samples;Min_cycle;Max_cycle;Signal;HPM_P1;HPM_P2
2022/07/19 00:00:04;;;;;;;4.95;2.50;;;24.20;54.90;;;;;;6110716;28;81603;-66
2022/07/19 00:03:05;;;;;;;2.70;2.05;;;24.10;54.90;;;;;;6111521;28;80661;-66
2022/07/19 00:06:06;;;;;;;4.88;2.67;;;24.20;55.00;;;;;;6099678;28;80565;-66
2022/07/19 00:09:07;;;;;;;3.67;2.72;;;24.20;55.00;;;;;;6110988;28;80451;-65
2022/07/19 00:12:07;;;;;;;7.57;2.88;;;24.20;54.90;;;;;;6110840;28;80487;-66
2022/07/19 00:15:08;;;;;;;3.60;2.63;;;24.10;55.00;;;;;;6111213;28;81018;-65
2022/07/19 00:18:08;;;;;;;3.42;2.40;;;24.10;55.00;;;;;;6107198;28;80878;-65
2022/07/19 00:21:08;;;;;;;3.83;2.47;;;24.20;55.00;;;;;;6100913;28;80367;-66
2022/07/19 00:24:09;;;;;;;5.45;2.65;;;24.10;55.00;;;;;;6108741;28;83249;-66
2022/07/19 00:27:09;;;;;;;3.40;2.50;;;24.10;55.10;;;;;;6110922;28;81034;-65
2022/07/19 00:30:10;;;;;;;5.03;2.67;;;24.10;54.90;;;;;;6102130;28;80548;-66
2022/07/19 00:33:10;;;;;;;3.35;2.20;;;24.10;54.90;;;;;;6109606;28;80789;-66
2022/07/19 00:36:11;;;;;;;3.22;2.30;;;24.10;54.90;;;;;;6091234;28;80521;-66
2022/07/19 00:39:11;;;;;;;2.97;2.10;;;24.10;54.90;;;;;;6101386;28;81207;-66
2022/07/19 00:42:14;;;;;;;3.45;2.47;;;24.10;54.80;;;;;;6109294;28;84782;-66
2022/07/19 00:45:15;;;;;;;6.10;2.83;;;24.10;54.80;;;;;;6109949;28;81393;-66
2022/07/19 00:48:15;;;;;;;5.05;2.10;;;24.10;54.90;;;;;;6109745;28;81506;-66
2022/07/19 00:51:16;;;;;;;2.60;2.22;;;24.10;54.90;;;;;;6110527;28;80622;-65
2022/07/19 00:54:16;;;;;;;3.58;2.70;;;24.10;54.90;;;;;;6114813;28;80451;-67
2022/07/19 00:57:17;;;;;;;3.17;2.60;;;24.10;54.90;;;;;;6114346;28;80184;-66
2022/07/19 01:00:18;;;;;;;4.88;2.28;;;24.20;55.00;;;;;;6115781;28;80516;-66
2022/07/19 01:03:18;;;;;;;2.83;2.05;;;24.10;54.90;;;;;;6113557;28;81257;-65
2022/07/19 01:06:19;;;;;;;3.25;2.20;;;24.10;54.90;;;;;;6109706;28;80607;-65
2022/07/19 01:09:19;;;;;;;3.15;2.38;;;24.10;54.90;;;;;;6115565;28;80847;-65
2022/07/19 01:12:20;;;;;;;3.25;2.25;;;24.10;54.80;;;;;;6113557;28;80649;-65
2022/07/19 01:15:21;;;;;;;3.65;2.50;;;24.10;54.90;;;;;;6113487;28;81062;-65
2022/07/19 01:18:21;;;;;;;4.40;2.58;;;24.10;54.80;;;;;;6118107;28;80371;-66
2022/07/19 01:21:22;;;;;;;3.97;2.25;;;24.10;54.80;;;;;;6102396;28;80660;-66
2022/07/19 01:24:22;;;;;;;2.85;2.25;;;24.10;54.80;;;;;;6117187;28;80620;-65
2022/07/19 01:27:23;;;;;;;2.40;2.20;;;24.10;54.80;;;;;;6114756;28;80467;-65
2022/07/19 01:30:24;;;;;;;4.07;2.28;;;24.10;54.80;;;;;;6106082;28;82638;-66
2022/07/19 01:33:25;;;;;;;3.17;2.45;;;24.10;54.90;;;;;;6108166;28;81111;-66
2022/07/19 01:36:25;;;;;;;2.50;1.70;;;24.10;54.90;;;;;;6109968;28;80396;-66
2022/07/19 01:39:26;;;;;;;3.42;2.20;;;24.10;54.90;;;;;;6115137;28;80945;-65
2022/07/19 01:42:26;;;;;;;3.55;2.15;;;24.10;54.90;;;;;;6109831;28;80445;-65
2022/07/19 01:45:27;;;;;;;3.08;2.17;;;24.10;54.90;;;;;;6109377;28;80407;-65
2022/07/19 01:48:27;;;;;;;3.45;2.25;;;24.10;54.90;;;;;;6109444;28;80275;-65
2022/07/19 01:51:28;;;;;;;3.50;2.25;;;24.10;54.90;;;;;;6116647;28;80616;-65
2022/07/19 01:54:28;;;;;;;2.40;2.00;;;24.10;54.90;;;;;;6112052;28;80887;-65
2022/07/19 01:57:29;;;;;;;3.15;2.20;;;24.10;55.00;;;;;;6109188;28;80447;-65
2022/07/19 02:00:30;;;;;;;4.78;2.50;;;24.10;54.90;;;;;;6109481;28;81125;-65
2022/07/19 02:03:30;;;;;;;3.22;2.20;;;24.10;55.00;;;;;;6109786;28;80451;-66
2022/07/19 02:06:31;;;;;;;2.90;2.13;;;24.10;55.00;;;;;;6110887;28;81029;-65
2022/07/19 02:09:31;;;;;;;4.00;2.50;;;24.10;55.00;;;;;;6119923;28;80260;-65
2022/07/19 02:12:32;;;;;;;4.03;2.38;;;24.10;55.10;;;;;;6124794;28;82432;-65
2022/07/19 02:15:33;;;;;;;4.50;2.53;;;24.10;55.10;;;;;;6121282;28;80299;-66
2022/07/19 02:18:33;;;;;;;6.32;2.40;;;24.10;55.10;;;;;;6112949;28;80407;-66
2022/07/19 02:21:34;;;;;;;4.63;2.42;;;24.00;55.00;;;;;;6112920;28;80942;-66
2022/07/19 02:24:34;;;;;;;2.42;1.95;;;24.10;55.00;;;;;;6107011;28;80829;-67
2022/07/19 02:27:35;;;;;;;3.05;2.30;;;24.00;54.90;;;;;;6113556;28;82774;-65
2022/07/19 02:30:35;;;;;;;2.35;2.08;;;24.00;55.00;;;;;;6108857;28;80602;-66
2022/07/19 02:33:36;;;;;;;3.10;2.10;;;24.00;55.00;;;;;;6105601;28;80371;-65
2022/07/19 02:36:36;;;;;;;2.88;2.33;;;24.10;55.00;;;;;;6110643;28;80704;-66
2022/07/19 02:39:37;;;;;;;3.67;2.33;;;24.00;55.00;;;;;;6109010;28;80520;-66
2022/07/19 02:42:37;;;;;;;3.85;2.47;;;24.00;55.00;;;;;;6115644;28;80227;-66
2022/07/19 02:45:38;;;;;;;4.22;2.47;;;24.00;55.00;;;;;;6119924;28;80479;-66
2022/07/19 02:48:38;;;;;;;3.22;2.40;;;24.00;55.00;;;;;;6122909;28;80256;-65
2022/07/19 02:51:38;;;;;;;2.63;1.98;;;24.00;55.00;;;;;;6112865;28;80983;-65
2022/07/19 02:54:39;;;;;;;3.13;2.13;;;24.00;55.00;;;;;;6103401;28;80481;-65
2022/07/19 02:57:39;;;;;;;2.97;2.20;;;24.00;55.00;;;;;;6095317;28;80498;-65
2022/07/19 03:00:40;;;;;;;3.67;2.47;;;24.00;55.00;;;;;;6096384;28;80455;-66
2022/07/19 03:03:43;;;;;;;3.53;2.30;;;24.00;55.10;;;;;;6107734;28;80656;-66
2022/07/19 03:06:44;;;;;;;5.70;3.13;;;24.00;55.00;;;;;;6112226;28;81401;-66
2022/07/19 03:09:45;;;;;;;3.45;2.20;;;24.00;55.00;;;;;;6112002;28;80492;-66
2022/07/19 03:12:46;;;;;;;2.97;2.05;;;24.00;55.10;;;;;;6109641;28;80454;-66
2022/07/19 03:15:47;;;;;;;2.58;2.13;;;24.00;55.10;;;;;;6111852;28;81148;-66
2022/07/19 03:18:48;;;;;;;3.53;2.28;;;24.00;55.10;;;;;;6107523;28;81568;-66
2022/07/19 03:21:48;;;;;;;4.13;2.60;;;24.00;55.10;;;;;;6110786;28;80288;-66
2022/07/19 03:24:48;;;;;;;3.35;2.28;;;24.00;55.10;;;;;;6108163;28;80874;-67
2022/07/19 03:27:49;;;;;;;3.67;2.22;;;24.00;55.10;;;;;;6108895;28;80344;-66
2022/07/19 03:30:49;;;;;;;2.72;2.30;;;24.00;55.20;;;;;;6096538;28;81580;-68
2022/07/19 03:33:50;;;;;;;3.78;2.42;;;24.00;55.20;;;;;;6098629;28;80513;-69
2022/07/19 03:36:50;;;;;;;3.88;2.30;;;24.00;55.30;;;;;;6107419;28;80809;-70
2022/07/19 03:39:51;;;;;;;3.95;2.42;;;24.00;55.40;;;;;;6110788;28;80472;-68
2022/07/19 03:42:51;;;;;;;3.92;2.17;;;24.00;55.50;;;;;;6105683;28;81694;-69
2022/07/19 03:45:52;;;;;;;6.53;3.03;;;24.00;55.50;;;;;;6105475;28;80859;-69
2022/07/19 03:48:52;;;;;;;7.18;2.70;;;24.00;55.50;;;;;;6099100;28;80492;-70
2022/07/19 03:51:53;;;;;;;5.13;3.00;;;24.10;55.80;;;;;;6102376;28;81323;-71
2022/07/19 03:54:54;;;;;;;6.13;3.42;;;24.10;55.50;;;;;;6106739;28;80483;-71
2022/07/19 03:57:55;;;;;;;4.22;2.38;;;24.10;56.00;;;;;;6101295;28;80872;-69
2022/07/19 04:00:55;;;;;;;3.58;2.60;;;24.10;55.60;;;;;;6109657;28;81457;-73
2022/07/19 04:03:56;;;;;;;4.47;2.50;;;24.10;55.50;;;;;;6111451;28;80404;-72
2022/07/19 04:06:56;;;;;;;4.70;2.53;;;24.10;55.60;;;;;;6103350;28;80926;-65
2022/07/19 04:09:57;;;;;;;4.18;2.70;;;24.10;55.70;;;;;;6114521;28;81394;-66
2022/07/19 04:12:57;;;;;;;8.93;3.17;;;24.10;55.90;;;;;;6112844;28;80436;-65
2022/07/19 04:15:58;;;;;;;5.05;3.30;;;24.10;56.20;;;;;;6110564;28;80761;-64
2022/07/19 04:18:58;;;;;;;10.27;3.78;;;24.10;56.40;;;;;;6105406;28;80334;-69
2022/07/19 04:21:58;;;;;;;7.10;3.03;;;24.10;56.40;;;;;;6107191;28;82108;-65
2022/07/19 04:24:59;;;;;;;11.32;3.67;;;24.10;56.50;;;;;;6112444;28;83005;-66
2022/07/19 04:28:01;;;;;;;7.55;2.97;;;24.10;56.60;;;;;;6107950;28;80335;-66
2022/07/19 04:31:02;;;;;;;10.13;3.83;;;24.10;56.70;;;;;;6107316;28;80722;-66
2022/07/19 04:34:02;;;;;;;11.48;2.90;;;24.10;56.70;;;;;;6114303;28;80625;-66
2022/07/19 04:37:03;;;;;;;5.38;2.72;;;24.10;56.30;;;;;;6106932;28;80475;-66
2022/07/19 04:40:03;;;;;;;5.25;2.95;;;24.10;56.30;;;;;;6123554;28;80249;-66
2022/07/19 04:43:04;;;;;;;5.03;3.13;;;24.10;56.30;;;;;;6112243;28;81163;-66
2022/07/19 04:46:04;;;;;;;8.52;3.08;;;24.10;56.20;;;;;;6110381;28;80485;-66
2022/07/19 04:49:05;;;;;;;6.75;3.00;;;24.10;56.20;;;;;;6110408;28;80254;-66
2022/07/19 04:52:05;;;;;;;5.35;3.08;;;24.10;56.50;;;;;;6109919;28;81528;-76
2022/07/19 04:55:06;;;;;;;5.38;3.08;;;24.10;56.70;;;;;;6110993;28;80841;-66
2022/07/19 04:58:06;;;;;;;4.15;2.78;;;24.20;56.50;;;;;;6112422;28;80591;-66
2022/07/19 05:01:07;;;;;;;7.70;2.63;;;24.10;56.50;;;;;;6115349;28;80976;-67
2022/07/19 05:04:07;;;;;;;5.78;2.72;;;24.20;56.80;;;;;;6114606;28;80595;-68
2022/07/19 05:07:08;;;;;;;6.30;2.45;;;24.30;56.80;;;;;;6105991;28;80310;-68
2022/07/19 05:10:08;;;;;;;5.88;2.60;;;24.30;56.90;;;;;;6112197;28;80564;-67
2022/07/19 05:13:09;;;;;;;4.88;2.60;;;24.30;56.80;;;;;;6107589;28;80875;-67
2022/07/19 05:16:09;;;;;;;4.05;2.90;;;24.30;56.80;;;;;;6111775;28;80841;-74
2022/07/19 05:19:10;;;;;;;11.45;3.25;;;24.30;56.90;;;;;;6119535;28;80290;-70
2022/07/19 05:22:10;;;;;;;11.18;3.03;;;24.30;56.90;;;;;;6129413;28;80555;-72
2022/07/19 05:25:11;;;;;;;12.68;2.65;;;24.40;57.00;;;;;;6111895;28;80770;-63
2022/07/19 05:28:11;;;;;;;5.60;2.78;;;24.30;56.70;;;;;;6102073;28;80511;-64
2022/07/19 05:31:12;;;;;;;6.43;2.90;;;24.30;55.90;;;;;;6093092;28;80718;-65
2022/07/19 05:34:12;;;;;;;7.35;3.05;;;24.30;55.80;;;;;;6086416;28;80565;-65
2022/07/19 05:37:13;;;;;;;9.35;3.03;;;24.30;55.40;;;;;;6096790;28;80458;-65
2022/07/19 05:40:13;;;;;;;6.28;3.00;;;24.30;55.10;;;;;;6109408;28;80236;-65
2022/07/19 05:43:15;;;;;;;8.05;3.58;;;24.20;54.70;;;;;;6107064;28;80488;-65
2022/07/19 05:46:16;;;;;;;4.70;2.58;;;24.20;54.50;;;;;;6123796;28;80574;-64
2022/07/19 05:49:16;;;;;;;4.68;2.83;;;24.10;55.00;;;;;;6114630;28;80920;-67
2022/07/19 05:52:17;;;;;;;9.13;3.47;;;24.10;54.40;;;;;;6109223;28;80937;-63
2022/07/19 05:55:17;;;;;;;11.40;3.30;;;24.00;53.90;;;;;;6111455;28;80592;-64
2022/07/19 05:58:18;;;;;;;4.60;2.80;;;24.00;54.30;;;;;;6106060;28;80462;-64
2022/07/19 06:01:18;;;;;;;5.00;3.28;;;24.10;54.50;;;;;;6104488;28;80567;-64
2022/07/19 06:04:19;;;;;;;5.88;2.92;;;24.10;54.60;;;;;;6105933;28;81350;-64
2022/07/19 06:07:19;;;;;;;11.25;3.53;;;24.10;54.20;;;;;;6109722;28;80478;-65
2022/07/19 06:10:20;;;;;;;8.23;3.10;;;24.10;54.20;;;;;;6112278;28;81122;-64
2022/07/19 06:13:20;;;;;;;5.78;3.42;;;24.10;54.20;;;;;;6112333;28;80410;-62
2022/07/19 06:16:21;;;;;;;6.72;3.33;;;24.10;54.20;;;;;;6113119;28;80957;-64
2022/07/19 06:19:21;;;;;;;5.60;3.15;;;24.20;54.10;;;;;;6113186;28;87684;-64
2022/07/19 06:22:22;;;;;;;10.07;3.22;;;24.20;54.00;;;;;;6129016;28;80557;-64
2022/07/19 06:25:22;;;;;;;6.05;3.08;;;24.20;53.90;;;;;;6114648;28;80851;-64
2022/07/19 06:28:23;;;;;;;7.63;3.13;;;24.20;53.70;;;;;;6113698;28;80653;-64
2022/07/19 06:31:23;;;;;;;8.05;2.78;;;24.20;53.60;;;;;;6103947;28;80359;-64
2022/07/19 06:34:24;;;;;;;3.72;2.58;;;24.20;53.60;;;;;;6123776;28;80952;-64
2022/07/19 06:37:24;;;;;;;4.93;3.42;;;24.20;53.50;;;;;;6124288;28;80471;-66
2022/07/19 06:40:25;;;;;;;5.13;3.38;;;24.20;53.40;;;;;;6114096;28;80515;-64
2022/07/19 06:43:25;;;;;;;6.60;3.53;;;24.20;53.20;;;;;;6113644;28;80640;-63
2022/07/19 06:46:26;;;;;;;6.10;3.03;;;24.20;53.20;;;;;;6121888;28;80283;-64
2022/07/19 06:49:27;;;;;;;9.02;3.03;;;24.20;53.20;;;;;;6114671;28;80346;-64
2022/07/19 06:52:27;;;;;;;8.10;3.20;;;24.30;53.20;;;;;;6114196;28;80277;-64
2022/07/19 06:55:28;;;;;;;8.85;3.65;;;24.30;53.30;;;;;;6115386;28;80263;-63
2022/07/19 06:58:29;;;;;;;5.15;3.03;;;24.30;53.40;;;;;;6113203;28;80729;-64
2022/07/19 07:01:29;;;;;;;7.68;3.72;;;24.30;53.90;;;;;;6117512;28;80292;-63
2022/07/19 07:04:30;;;;;;;8.63;3.80;;;24.30;53.20;;;;;;6118652;28;80481;-64
2022/07/19 07:07:30;;;;;;;5.85;3.08;;;24.20;53.30;;;;;;6118572;28;80772;-64
2022/07/19 07:10:31;;;;;;;4.78;2.85;;;24.10;53.70;;;;;;6112794;28;80319;-63
2022/07/19 07:13:31;;;;;;;9.63;4.40;;;24.10;53.40;;;;;;6112715;28;80368;-63
2022/07/19 07:16:32;;;;;;;6.93;4.05;;;24.20;53.20;;;;;;6113358;28;81497;-65
2022/07/19 07:19:32;;;;;;;10.70;4.55;;;24.20;53.00;;;;;;6098191;28;80400;-63
2022/07/19 07:22:33;;;;;;;7.05;4.10;;;24.30;53.10;;;;;;6118207;28;80613;-64
2022/07/19 07:25:33;;;;;;;10.38;4.30;;;24.30;52.90;;;;;;6112787;28;80857;-64
2022/07/19 07:28:34;;;;;;;6.80;3.92;;;24.30;52.90;;;;;;6112417;28;80733;-64
2022/07/19 07:31:34;;;;;;;6.90;3.83;;;24.30;52.90;;;;;;6112645;28;80783;-64
2022/07/19 07:34:35;;;;;;;8.02;4.25;;;24.40;52.80;;;;;;6112715;28;80921;-64
2022/07/19 07:37:35;;;;;;;7.47;3.20;;;24.40;52.80;;;;;;6106347;28;80394;-64
2022/07/19 07:40:36;;;;;;;6.90;3.47;;;24.40;52.70;;;;;;6111763;28;80507;-65
2022/07/19 07:43:36;;;;;;;7.35;3.95;;;24.40;52.10;;;;;;6112050;28;80892;-64
2022/07/19 07:46:37;;;;;;;8.57;3.47;;;24.40;52.40;;;;;;6111882;28;81667;-64
2022/07/19 07:49:37;;;;;;;7.40;3.72;;;24.40;52.40;;;;;;6118447;28;80972;-64
2022/07/19 07:52:38;;;;;;;4.70;2.88;;;24.40;52.70;;;;;;6112293;28;80290;-64
2022/07/19 07:55:41;;;;;;;7.47;2.92;;;24.40;52.60;;;;;;6118861;28;80700;-65
2022/07/19 07:58:42;;;;;;;6.30;2.78;;;24.40;52.60;;;;;;6111906;28;81184;-64
2022/07/19 08:01:44;;;;;;;5.72;3.22;;;24.40;52.20;;;;;;6112109;28;80675;-64
2022/07/19 08:04:44;;;;;;;8.05;3.60;;;24.50;52.60;;;;;;6112169;28;80535;-63
2022/07/19 08:07:45;;;;;;;5.88;3.25;;;24.50;52.70;;;;;;6112082;28;80454;-64
2022/07/19 08:10:45;;;;;;;9.00;3.25;;;24.50;52.70;;;;;;6110630;28;81104;-63
2022/07/19 08:13:46;;;;;;;5.47;3.17;;;24.60;52.20;;;;;;6111621;28;80298;-63
2022/07/19 08:16:46;;;;;;;6.72;3.45;;;24.60;52.00;;;;;;6109572;28;80720;-63
2022/07/19 08:19:46;;;;;;;4.53;3.10;;;24.60;52.30;;;;;;6107629;28;80647;-63
2022/07/19 08:22:47;;;;;;;5.47;3.00;;;24.60;52.50;;;;;;6111353;28;84378;-63
2022/07/19 08:25:47;;;;;;;3.22;2.55;;;24.70;52.60;;;;;;6103300;28;81018;-64
2022/07/19 08:28:48;;;;;;;6.88;2.88;;;24.70;52.60;;;;;;6109315;28;80488;-64
2022/07/19 08:31:49;;;;;;;4.18;2.72;;;24.70;52.40;;;;;;6111398;28;80415;-64
2022/07/19 08:34:49;;;;;;;12.48;3.17;;;24.70;52.60;;;;;;6111419;28;80796;-64
2022/07/19 08:37:50;;;;;;;7.32;3.30;;;24.80;52.60;;;;;;6111907;28;81332;-65
2022/07/19 08:40:50;;;;;;;5.22;2.65;;;24.70;52.60;;;;;;6100179;28;80519;-67
2022/07/19 08:43:51;;;;;;;6.75;3.28;;;24.80;52.50;;;;;;6099886;28;80529;-67
2022/07/19 08:46:51;;;;;;;7.88;3.08;;;24.80;51.70;;;;;;6101640;28;80114;-65
2022/07/19 08:49:52;;;;;;;8.07;3.20;;;24.80;51.90;;;;;;6109990;28;80663;-63
2022/07/19 08:52:52;;;;;;;6.57;2.95;;;24.80;51.80;;;;;;6106449;28;87370;-64
2022/07/19 08:55:53;;;;;;;5.65;3.15;;;24.90;51.90;;;;;;6103724;28;80787;-66
2022/07/19 08:58:53;;;;;;;7.90;3.13;;;24.90;51.40;;;;;;6096498;28;80364;-62
2022/07/19 09:01:54;;;;;;;7.65;2.92;;;24.80;51.60;;;;;;6096122;28;80857;-64
2022/07/19 09:04:54;;;;;;;8.65;2.80;;;24.90;51.60;;;;;;6092814;28;80935;-62
2022/07/19 09:07:55;;;;;;;7.53;3.30;;;24.90;51.20;;;;;;6093135;28;80404;-62
2022/07/19 09:11:14;;;;;;;5.68;2.97;;;24.90;51.10;;;;;;6100384;28;81112;-62
2022/07/19 09:14:14;;;;;;;7.63;3.28;;;25.00;50.70;;;;;;6090209;28;80761;-66
2022/07/19 09:17:19;;;;;;;5.53;2.65;;;25.10;49.60;;;;;;6097878;28;80869;-65
2022/07/19 09:20:19;;;;;;;6.22;2.40;;;25.20;50.60;;;;;;6093580;28;80599;-66
2022/07/19 09:23:20;;;;;;;4.57;2.45;;;25.20;50.70;;;;;;6094043;28;80841;-66
2022/07/19 09:26:20;;;;;;;6.75;2.85;;;25.20;50.40;;;;;;6092935;28;80399;-67
2022/07/19 09:29:21;;;;;;;6.40;2.70;;;25.30;50.40;;;;;;6103121;28;80356;-66
2022/07/19 09:32:21;;;;;;;5.20;2.75;;;25.20;50.40;;;;;;6113478;28;80669;-62
2022/07/19 09:35:21;;;;;;;5.75;2.60;;;25.20;50.40;;;;;;6114437;28;80950;-62
2022/07/19 09:38:22;;;;;;;3.75;2.38;;;25.30;51.00;;;;;;6099015;28;80530;-62
2022/07/19 09:41:22;;;;;;;5.13;2.40;;;25.20;49.30;;;;;;6105438;28;80891;-63
2022/07/19 09:44:23;;;;;;;4.35;2.17;;;25.20;48.40;;;;;;6085714;28;80650;-69
2022/07/19 09:47:23;;;;;;;5.28;2.30;;;25.20;47.40;;;;;;6095294;28;80345;-66
2022/07/19 09:50:24;;;;;;;4.18;2.70;;;25.20;48.80;;;;;;6090553;28;81524;-63
2022/07/19 09:53:24;;;;;;;5.53;1.95;;;25.30;48.30;;;;;;6083077;28;80413;-65
2022/07/19 09:56:25;;;;;;;5.25;2.45;;;25.30;48.50;;;;;;6106588;28;80419;-63
2022/07/19 09:59:26;;;;;;;5.85;2.22;;;25.30;48.90;;;;;;6102186;28;80398;-64
2022/07/19 10:02:27;;;;;;;5.07;2.42;;;25.50;48.00;;;;;;6106893;28;80875;-64
2022/07/19 10:05:27;;;;;;;6.28;2.40;;;25.70;46.60;;;;;;6102813;28;80326;-62
2022/07/19 10:08:28;;;;;;;20.42;2.53;;;25.60;47.50;;;;;;6102512;28;81757;-63
2022/07/19 10:11:28;;;;;;;6.90;2.47;;;25.60;47.60;;;;;;6101759;28;81563;-62
2022/07/19 10:14:29;;;;;;;5.97;2.45;;;25.50;47.70;;;;;;6103315;28;80545;-63
2022/07/19 10:17:29;;;;;;;4.25;2.20;;;25.50;47.90;;;;;;6109748;28;80564;-63
2022/07/19 10:20:29;;;;;;;5.95;2.95;;;25.40;48.00;;;;;;6104498;28;80326;-64
2022/07/19 10:23:31;;;;;;;3.78;2.22;;;25.40;48.30;;;;;;6112364;28;80526;-63
2022/07/19 10:26:31;;;;;;;5.82;3.53;;;25.50;47.40;;;;;;6107969;28;80978;-64
2022/07/19 10:29:32;;;;;;;10.90;3.63;;;25.70;45.40;;;;;;6113142;28;80525;-64
2022/07/19 10:32:32;;;;;;;6.53;2.63;;;25.80;45.00;;;;;;6105502;28;80457;-65
2022/07/19 10:35:34;;;;;;;6.18;2.05;;;25.80;45.20;;;;;;6115705;28;80327;-66
2022/07/19 10:38:34;;;;;;;5.25;2.80;;;26.00;44.70;;;;;;6107175;28;81672;-65
2022/07/19 10:41:34;;;;;;;6.00;2.63;;;26.10;45.00;;;;;;6113570;28;80684;-65
2022/07/19 10:44:35;;;;;;;5.15;2.63;;;26.10;44.80;;;;;;6095144;28;83822;-65
2022/07/19 10:47:39;;;;;;;5.00;2.92;;;26.10;45.60;;;;;;6097796;28;80129;-65
2022/07/19 10:50:39;;;;;;;4.90;3.20;;;26.00;45.60;;;;;;6099479;28;84775;-66
2022/07/19 10:53:40;;;;;;;4.57;2.97;;;26.20;45.60;;;;;;6107186;28;81570;-64
2022/07/19 10:56:40;;;;;;;6.85;3.00;;;26.20;45.90;;;;;;6101762;28;80480;-64
2022/07/19 10:59:41;;;;;;;8.23;3.88;;;26.20;46.70;;;;;;6094365;28;80254;-64
2022/07/19 11:02:41;;;;;;;7.88;3.35;;;26.20;46.40;;;;;;6100963;28;80314;-67
2022/07/19 11:05:42;;;;;;;6.90;2.90;;;26.30;46.40;;;;;;6097913;28;80857;-65
2022/07/19 11:08:42;;;;;;;5.78;3.10;;;26.20;46.50;;;;;;6090713;28;80440;-65
2022/07/19 11:11:42;;;;;;;7.85;3.10;;;26.10;46.70;;;;;;6099684;28;80404;-64
2022/07/19 11:14:43;;;;;;;5.18;2.90;;;26.10;47.40;;;;;;6107914;28;80362;-64
2022/07/19 11:17:44;;;;;;;11.32;3.00;;;26.10;46.70;;;;;;6105052;28;81581;-65
2022/07/19 11:20:44;;;;;;;5.57;2.38;;;26.10;46.10;;;;;;6108734;28;80804;-65
2022/07/19 11:23:45;;;;;;;4.32;2.92;;;26.10;46.30;;;;;;6108976;28;80191;-63
2022/07/19 11:26:45;;;;;;;4.20;2.50;;;26.10;46.10;;;;;;6094364;28;80960;-64
2022/07/19 11:29:46;;;;;;;3.53;2.63;;;26.10;46.50;;;;;;6089096;28;81476;-64
2022/07/19 11:32:46;;;;;;;5.78;2.72;;;26.00;46.70;;;;;;6101353;28;80305;-66
2022/07/19 11:35:47;;;;;;;8.63;2.85;;;25.90;46.90;;;;;;6088921;28;81828;-67
2022/07/19 11:38:47;;;;;;;2.85;2.15;;;25.90;47.00;;;;;;6111234;28;80474;-64
2022/07/19 11:41:48;;;;;;;6.18;3.20;;;25.90;47.20;;;;;;6121028;28;80282;-65
2022/07/19 11:44:48;;;;;;;7.72;2.90;;;25.90;47.30;;;;;;6110903;28;81375;-65
2022/07/19 11:47:49;;;;;;;7.25;2.70;;;25.90;47.50;;;;;;6110754;28;82122;-66
2022/07/19 11:50:49;;;;;;;7.28;2.72;;;25.80;47.80;;;;;;6111751;28;80471;-66
2022/07/19 11:53:51;;;;;;;7.47;3.47;;;25.80;47.70;;;;;;6111817;28;80751;-65
2022/07/19 11:56:52;;;;;;;5.80;2.75;;;25.80;47.90;;;;;;6113180;28;80677;-66
2022/07/19 11:59:52;;;;;;;8.45;3.53;;;25.80;48.30;;;;;;6111644;28;80980;-64
2022/07/19 12:02:53;;;;;;;5.53;3.28;;;25.80;48.70;;;;;;6107278;28;80308;-66
2022/07/19 12:05:53;;;;;;;9.05;3.40;;;25.70;48.30;;;;;;6111741;28;80153;-65
2022/07/19 12:08:54;;;;;;;8.93;3.70;;;25.70;49.10;;;;;;6116172;28;83151;-65
2022/07/19 12:11:54;;;;;;;10.27;3.63;;;25.80;48.80;;;;;;6113600;28;80581;-64
2022/07/19 12:14:55;;;;;;;35.70;11.25;;;25.90;48.70;;;;;;6120191;28;81941;-64
2022/07/19 12:17:56;;;;;;;147.40;42.90;;;25.80;48.50;;;;;;6127551;28;83019;-64
2022/07/19 12:20:57;;;;;;;118.70;36.33;;;25.80;48.70;;;;;;6104841;28;83194;-64
2022/07/19 12:23:57;;;;;;;101.05;32.28;;;25.80;48.70;;;;;;6100357;28;83059;-64
2022/07/19 12:26:58;;;;;;;59.80;18.50;;;25.70;48.60;;;;;;6108221;28;83340;-64
2022/07/19 12:29:58;;;;;;;41.30;12.93;;;25.90;48.60;;;;;;6101646;28;85172;-64
2022/07/19 12:32:59;;;;;;;30.70;6.45;;;26.00;48.00;;;;;;6107767;28;83625;-64
2022/07/19 12:35:59;;;;;;;29.83;8.85;;;26.20;46.10;;;;;;6111136;28;83097;-64
2022/07/19 12:39:00;;;;;;;10.38;4.88;;;26.20;47.10;;;;;;6101714;28;80652;-66
2022/07/19 12:42:00;;;;;;;9.95;4.28;;;26.40;45.10;;;;;;6113510;28;80583;-66
2022/07/19 12:45:01;;;;;;;9.10;4.03;;;26.60;45.40;;;;;;6103956;28;80775;-65
2022/07/19 12:48:01;;;;;;;7.60;3.90;;;26.50;45.80;;;;;;6110949;28;80866;-63
2022/07/19 12:51:02;;;;;;;8.85;3.95;;;26.50;46.00;;;;;;6102306;28;81704;-63
2022/07/19 12:54:02;;;;;;;12.75;4.50;;;26.40;46.50;;;;;;6107408;28;80581;-63
2022/07/19 12:57:03;;;;;;;7.75;3.50;;;26.40;46.90;;;;;;6108671;28;80359;-63
2022/07/19 13:00:03;;;;;;;6.57;3.35;;;26.40;46.90;;;;;;6106370;28;80433;-67
2022/07/19 13:03:04;;;;;;;12.00;3.72;;;26.50;47.00;;;;;;6100676;28;80508;-63
2022/07/19 13:06:04;;;;;;;4.13;2.67;;;26.50;46.80;;;;;;6107089;28;82450;-63
2022/07/19 13:09:05;;;;;;;7.07;3.38;;;26.50;47.00;;;;;;6109733;28;80264;-62
2022/07/19 13:12:05;;;;;;;10.27;3.50;;;26.40;47.10;;;;;;6110151;28;80787;-62
2022/07/19 13:15:06;;;;;;;4.13;2.42;;;26.40;46.70;;;;;;6109341;28;80783;-64
2022/07/19 13:18:06;;;;;;;5.78;2.67;;;26.40;47.00;;;;;;6103686;28;81373;-62
2022/07/19 13:21:06;;;;;;;4.00;2.50;;;26.40;47.00;;;;;;6110189;28;81354;-63
2022/07/19 13:24:07;;;;;;;4.88;2.80;;;26.50;46.90;;;;;;6114292;28;80482;-64
2022/07/19 13:27:07;;;;;;;8.38;3.05;;;26.50;46.90;;;;;;6117629;28;80576;-64
2022/07/19 13:30:08;;;;;;;6.15;2.38;;;26.50;47.00;;;;;;6111374;28;81003;-64
2022/07/19 13:33:08;;;;;;;7.50;3.03;;;26.40;47.30;;;;;;6115045;28;82352;-64
2022/07/19 13:36:09;;;;;;;12.95;3.35;;;26.40;47.70;;;;;;6114733;28;81367;-64
2022/07/19 13:39:09;;;;;;;6.20;2.70;;;26.40;47.20;;;;;;6118091;28;81138;-64
2022/07/19 13:42:10;;;;;;;5.30;2.58;;;26.40;47.30;;;;;;6112221;28;80754;-63
2022/07/19 13:45:10;;;;;;;4.20;2.42;;;26.40;47.50;;;;;;6121965;28;81011;-64
2022/07/19 13:48:11;;;;;;;5.57;3.22;;;26.30;47.70;;;;;;6125810;28;80175;-64
2022/07/19 13:51:11;;;;;;;3.15;2.58;;;26.30;47.60;;;;;;6115804;28;80362;-64
2022/07/19 13:54:12;;;;;;;6.22;2.95;;;26.30;47.50;;;;;;6110381;28;80429;-63
2022/07/19 13:57:12;;;;;;;11.18;3.55;;;26.30;47.80;;;;;;6096151;28;82019;-63
2022/07/19 14:00:13;;;;;;;7.65;3.13;;;26.30;48.10;;;;;;6095060;28;80985;-62
2022/07/19 14:03:16;;;;;;;3.13;2.53;;;26.30;47.90;;;;;;6103616;28;81331;-63
2022/07/19 14:06:17;;;;;;;4.60;2.40;;;26.20;48.10;;;;;;6096425;28;80617;-63
2022/07/19 14:09:18;;;;;;;5.22;2.60;;;26.30;48.20;;;;;;6096175;28;80479;-64
2022/07/19 14:12:18;;;;;;;4.03;2.58;;;26.30;48.20;;;;;;6109571;28;80398;-63
2022/07/19 14:15:19;;;;;;;5.22;2.75;;;26.40;47.90;;;;;;6097914;28;82917;-63
2022/07/19 14:18:19;;;;;;;5.30;2.60;;;26.40;47.60;;;;;;6096553;28;80965;-63
2022/07/19 14:21:20;;;;;;;6.43;2.65;;;26.50;47.80;;;;;;6101511;28;80988;-64
2022/07/19 14:24:20;;;;;;;3.88;2.50;;;26.50;47.30;;;;;;6107604;28;80436;-63
2022/07/19 14:27:21;;;;;;;8.38;2.78;;;26.60;46.80;;;;;;6101715;28;81408;-64
2022/07/19 14:30:22;;;;;;;4.75;2.60;;;26.70;46.10;;;;;;6106084;28;80420;-64
2022/07/19 14:33:22;;;;;;;5.70;3.00;;;26.70;46.10;;;;;;6105652;28;80853;-63
2022/07/19 14:36:23;;;;;;;7.10;2.92;;;26.80;46.20;;;;;;6101057;28;80465;-63
2022/07/19 14:39:23;;;;;;;4.50;2.97;;;26.80;46.10;;;;;;6098341;28;80482;-63
2022/07/19 14:42:24;;;;;;;5.78;2.90;;;26.80;46.50;;;;;;6101624;28;81095;-63
2022/07/19 14:45:24;;;;;;;4.13;3.05;;;26.80;46.20;;;;;;6099053;28;82091;-64
2022/07/19 14:48:25;;;;;;;4.72;2.53;;;26.80;46.40;;;;;;6106950;28;81474;-63
2022/07/19 14:51:25;;;;;;;7.70;3.03;;;26.70;46.60;;;;;;6103773;28;81156;-64
2022/07/19 14:54:26;;;;;;;4.97;2.65;;;26.70;46.80;;;;;;6115848;28;80681;-64
2022/07/19 14:57:27;;;;;;;4.13;2.70;;;26.60;46.90;;;;;;6112808;28;81868;-64
2022/07/19 15:00:27;;;;;;;3.97;2.53;;;26.50;47.20;;;;;;6115969;28;80431;-64
2022/07/19 15:03:28;;;;;;;9.32;2.70;;;26.50;47.40;;;;;;6114598;28;81073;-63
2022/07/19 15:06:29;;;;;;;3.10;2.78;;;26.40;47.60;;;;;;6111271;28;81493;-65
2022/07/19 15:09:29;;;;;;;8.05;3.40;;;26.40;47.70;;;;;;6104637;28;82534;-63
2022/07/19 15:12:30;;;;;;;6.38;3.20;;;26.40;47.70;;;;;;6106754;28;80647;-63
2022/07/19 15:15:30;;;;;;;5.25;2.83;;;26.40;47.20;;;;;;6103267;28;80851;-63
2022/07/19 15:18:31;;;;;;;6.03;2.88;;;26.50;47.20;;;;;;6105514;28;80761;-64
2022/07/19 15:21:33;;;;;;;6.97;3.17;;;26.50;47.40;;;;;;6100148;28;81539;-63
2022/07/19 15:24:34;;;;;;;4.88;2.75;;;26.50;46.90;;;;;;6108784;28;81005;-64
2022/07/19 15:27:34;;;;;;;6.60;3.22;;;26.50;46.50;;;;;;6108793;28;80579;-64
2022/07/19 15:30:35;;;;;;;5.57;3.08;;;26.50;46.90;;;;;;6110951;28;80951;-63
2022/07/19 15:33:35;;;;;;;11.60;3.22;;;26.50;46.90;;;;;;6119694;28;81023;-64
2022/07/19 15:36:36;;;;;;;6.72;2.80;;;26.50;47.10;;;;;;6107367;28;80257;-64